Terminal Aerodrome Forecast
Issued by NWS

Home | Current Version | Previous Version | Text Only | Print | Product List | Glossary On
Versions: 1 2 3 4 5 6 7 8 9 10 11 12
000
FTUS42 KMLB 191746
TAFISM
TAF
KISM 191746Z 1918/2018 05010KT P6SM VCSH SCT035 BKN080
      TEMPO 1918/1919 5SM SHRA BKN035
     FM192300 07007KT P6SM SCT040 BKN100
     FM200600 VRB04KT P6SM FEW040 SCT250=

USA.gov is the U.S. government's official web portal to all federal, state and local government web resources and services.